Clayton, NM (88415)

6:48 AM MDT on May 23, 2017 (GMT -0600)
Clayton Municipal | | Change Station

Elev 4964 ft 36.45 °N, 103.15 °W | Updated 53 minutes ago

Overcast
Overcast
42 °F
Feels Like 35 °F
N
14
Wind Variable Wind from NW

Today
High -- | Low -- °F
--% Chance of Precip.
Yesterday
High -- | Low -- °F
Precip. -- in
Pressure 30.09 in
Visibility 10.0 miles
Clouds Mostly Cloudy 9000 ft
Overcast 10000 ft
Windchill 35 °F
Dew Point 38 °F
Humidity 85%
Rainfall 0.00 in
Snow Depth Not available.
5:40 AM 7:59 PM
Waning Crescent, 8% visible
METAR KCAO 231155Z AUTO 31012KT 10SM BKN090 OVC100 06/03 A3018 RMK AO2 SLP188 60000 70001 T00560033 10078 20050 55003
Pressure 30.09 in
Visibility 10.0 miles
Clouds Mostly Cloudy 9000 ft
Overcast 10000 ft
Windchill 35 °F
Dew Point 38 °F
Humidity 85%
Rainfall 0.00 in
Snow Depth Not available.
5:40 AM 7:59 PM
Waning Crescent, 8% visible
METAR KCAO 231155Z AUTO 31012KT 10SM BKN090 OVC100 06/03 A3018 RMK AO2 SLP188 60000 70001 T00560033 10078 20050 55003

Get Severe Weather Alerts

Thanks for signing up!

Be on the lookout for a verification email in your inbox.

You'll start receiving the daily forecast at 6 AM.

×

10-Day Weather Forecast

Almanac

Astronomy

May. 23, 2017 Rise Set
Actual Time
Civil Twilight
Nautical Twilight
Astronomical Twilight
Moon
Length of Visible Light
Length of Day
Tomorrow will be .
, % of the Moon is Illuminated

Today's Extremes

State Highs State Lows

Community

WunderPhotos

Category 6

Welcome to Category 6. This is the collective home for Weather Underground's featured writeups by Dr. Jeff Masters (right), Bob Henson (left), Chris Burt, and other regular contributors.

Nearby

Air Quality

  Air Quality AQ Index Pollutant
Not available.

Snow Depth

Station Depth Elevation

Earthquake Activity

City Distance Mag. Time & Date
Minimum magnitude displayed is 2.5.

Coastal Water Temperatures

Place Temperature

Stations

Nearby Weather Stations

Station Location Temp. Windchill Dew Point Humidity Wind Precip. Elev Updated Type
                   

Watches & Warnings

There are currently no watches in effect.